createdAt,value
2023-04-11T00:08:07.345Z,1.15
2023-04-11T00:20:08.184Z,0.46
2023-04-11T00:32:10.028Z,0.32
2023-04-11T00:44:08.688Z,0.46
2023-04-11T00:56:09.148Z,0.05
2023-04-11T01:08:10.047Z,0.08
2023-04-11T01:20:12.827Z,0.16
2023-04-11T01:32:10.506Z,-0.20
2023-04-11T01:44:10.940Z,0.19
2023-04-11T01:56:11.411Z,-0.11
2023-04-11T02:08:11.881Z,-0.12
2023-04-11T02:20:12.320Z,-0.29
2023-04-11T02:32:12.927Z,-0.40
2023-04-11T02:44:13.230Z,-0.72
2023-04-11T02:56:13.698Z,-0.51
2023-04-11T03:08:14.170Z,-0.42
2023-04-11T03:20:14.566Z,-0.38
2023-04-11T03:32:15.031Z,-0.15
2023-04-11T03:44:15.536Z,0.10
2023-04-11T03:56:15.969Z,0.12
2023-04-11T04:08:16.429Z,0.20
2023-04-11T04:20:16.832Z,0.31
2023-04-11T04:32:17.319Z,0.12
2023-04-11T04:44:17.762Z,0.66
2023-04-11T04:56:18.195Z,2.46
2023-04-11T05:08:18.696Z,5.32
2023-04-11T05:20:19.130Z,6.41
2023-04-11T05:32:19.619Z,7.24
2023-04-11T05:44:20.018Z,7.50
2023-04-11T05:56:20.455Z,8.09
2023-04-11T06:08:20.917Z,8.37
2023-04-11T06:20:21.368Z,9.15
2023-04-11T06:32:21.924Z,9.79
2023-04-11T06:44:22.341Z,10.48
2023-04-11T06:56:22.744Z,11.36
2023-04-11T07:08:23.172Z,11.69
2023-04-11T07:20:23.691Z,11.72
2023-04-11T07:32:24.070Z,12.30
2023-04-11T07:44:24.556Z,12.24
2023-04-11T07:56:25.000Z,12.66
2023-04-11T08:08:25.455Z,13.00
2023-04-11T08:20:25.958Z,13.65
2023-04-11T08:32:26.429Z,13.89
2023-04-11T08:44:26.847Z,13.92
2023-04-11T08:56:27.296Z,13.72
2023-04-11T09:08:27.730Z,13.48
2023-04-11T09:20:28.144Z,13.92
2023-04-11T09:32:31.487Z,14.40
2023-04-11T09:44:29.064Z,14.48
2023-04-11T09:56:29.518Z,14.74
2023-04-11T10:08:30.010Z,14.71
2023-04-11T10:20:30.442Z,14.26
2023-04-11T10:32:30.840Z,13.88
2023-04-11T10:44:31.319Z,12.71
2023-04-11T10:56:31.825Z,12.08
2023-04-11T11:08:32.237Z,12.48
2023-04-11T11:20:32.668Z,12.87
2023-04-11T11:32:33.195Z,12.78
2023-04-11T11:44:33.624Z,12.63
2023-04-11T11:56:34.118Z,12.94
2023-04-11T12:08:34.498Z,13.39
2023-04-11T12:20:34.984Z,13.87
2023-04-11T12:32:35.523Z,13.71
2023-04-11T12:44:35.874Z,13.84
2023-04-11T12:56:36.361Z,14.04
2023-04-11T13:08:36.822Z,12.93
2023-04-11T13:20:37.256Z,12.50
2023-04-11T13:32:37.714Z,12.74
2023-04-11T13:44:38.123Z,12.98
2023-04-11T13:56:38.587Z,12.04
2023-04-11T14:08:39.121Z,12.08
2023-04-11T14:20:39.550Z,11.73
2023-04-11T14:32:40.016Z,11.74
2023-04-11T14:44:40.445Z,11.40
2023-04-11T14:56:40.916Z,11.33
2023-04-11T15:08:41.381Z,11.61
2023-04-11T15:20:41.850Z,11.43
2023-04-11T15:32:42.305Z,11.07
2023-04-11T15:44:42.705Z,10.57
2023-04-11T15:56:43.148Z,10.14
2023-04-11T16:08:43.813Z,9.58
2023-04-11T16:20:44.072Z,9.78
2023-04-11T16:32:44.607Z,9.26
2023-04-11T16:44:44.959Z,9.50
2023-04-11T16:56:45.407Z,9.08
2023-04-11T17:08:45.890Z,8.92
2023-04-11T17:20:46.329Z,8.55
2023-04-11T17:32:46.817Z,8.75
2023-04-11T17:44:47.231Z,8.39
2023-04-11T17:56:47.679Z,8.15
2023-04-11T18:08:51.058Z,8.01
2023-04-11T18:20:48.582Z,8.13
2023-04-11T18:32:50.403Z,7.63
2023-04-11T18:44:49.467Z,7.29
2023-04-11T18:56:52.974Z,6.89
2023-04-11T19:08:50.401Z,6.78
2023-04-11T19:20:50.873Z,6.95
2023-04-11T19:32:51.311Z,6.66
2023-04-11T19:44:52.861Z,6.24
2023-04-11T19:56:52.206Z,8.10
2023-04-11T20:08:52.639Z,8.16
2023-04-11T20:20:53.086Z,7.97
2023-04-11T20:32:53.609Z,7.68
2023-04-11T20:44:54.008Z,7.27
2023-04-11T20:56:54.446Z,6.66
2023-04-11T21:08:54.890Z,5.77
2023-04-11T21:20:55.361Z,5.27
2023-04-11T21:32:55.851Z,4.61
2023-04-11T21:44:56.226Z,4.20
2023-04-11T21:56:56.729Z,3.91
2023-04-11T22:08:57.184Z,3.85
2023-04-11T22:20:57.609Z,3.67
2023-04-11T22:32:58.102Z,3.18
2023-04-11T22:44:58.523Z,2.91
2023-04-11T22:56:59.019Z,2.68
2023-04-11T23:08:59.415Z,2.45
2023-04-11T23:20:59.859Z,2.32
2023-04-11T23:33:00.414Z,2.07
2023-04-11T23:45:00.785Z,1.85
2023-04-11T23:57:01.209Z,1.65
